Airfield :
LOGIN :

Register | Disclaimer

   EN    FR    IT 

 










Legend :    VFR   Marginal VFR   IFR   Intensive IFR   Very Intensive IFR
Visi :
Ceiling :
>= 8 km
>= 3000ft
5 to 8 km
1000 to 3000 ft
1500m to 5 km
500 to 1000 ft
800 to 1500m
200 to 500 ft
< 800m
< 200 ft
Symbols :   Thunderstorms  Fog  Heavy snow  Heavy precipitations  Wind > 20 kt
SIGMETs :     Misc.  Thunderstorms  Icing  Turbulence  Mountain Waves  Volcanic Ashes






- Airport Elevation : 466 ft


LHPA - Pápa

CURRENT METAR :
  • 270245Z 19006KT CAVOK 14/07 Q1008 NOSIG RMK BLU

EXPIRED METARs :
  • 270215Z 19008KT CAVOK 14/08 Q1008 NOSIG RMK BLU
  • 270145Z 17008KT CAVOK 14/08 Q1008 NOSIG RMK BLU
  • 270045Z 18012KT CAVOK 15/08 Q1009 NOSIG RMK BLU
  • 270015Z 17010KT CAVOK 15/08 Q1009 NOSIG RMK BLU

TAF TAF LHPA
Valid from the 27 at 00:00 until the 28 at 00:00 UTC


262315Z 2700/2724 16008KT CAVOK
TEMPO 2704/2711 VRB03KT
PROB40
TEMPO 2704/2707 5000 BR MIBCFG NSC
BECMG 2708/2711 9999 SCT020 SCT050
BECMG 2711/2713 33007KT 9999 BKN020 BKN050
TEMPO 2713/2716 32011KT 8000 -RA OVC017
TEMPO 2720/2724 5000 RA SHRA BR SCT010 OVC015



MET'MAP, your aeronautical weather chart ! - Copyright ORBIFLY December 2007 - Disclaimer

ORBIFLY MET'MAP TEAM :

Programming & Development : Alexandra Zaïnal
Concept & original design : Baudouin d'Aumeries
Assistance for programming : Marc-Olivier Méhu
Technical & hardware support : Manuel Goepfert

Contact : metmap@orbifly.com




SOURCES & CREDITS :

   NOAA